createdAt,value
2019-02-07T00:01:58.734Z,101527.98
2019-02-07T00:04:29.174Z,101519.44
2019-02-07T00:06:59.439Z,101517.22
2019-02-07T00:09:30.341Z,101513.66
2019-02-07T00:12:00.712Z,101509.73
2019-02-07T00:14:39.549Z,101499.16
2019-02-07T00:17:03.422Z,101500.74
2019-02-07T00:19:33.888Z,101494.45
2019-02-07T00:22:04.690Z,101486.95
2019-02-07T00:24:42.570Z,101487.83
2019-02-07T00:27:07.227Z,101480.57
2019-02-07T00:29:37.518Z,101476.66
2019-02-07T00:32:08.082Z,101476.66
2019-02-07T00:34:38.472Z,101471.97
2019-02-07T00:37:08.757Z,101465.70
2019-02-07T00:39:39.166Z,101458.97
2019-02-07T00:42:09.517Z,101454.94
2019-02-07T00:44:50.239Z,101444.27
2019-02-07T00:47:13.486Z,101447.97
2019-02-07T00:49:44.132Z,101448.59
2019-02-07T00:52:14.414Z,101440.29
2019-02-07T00:54:47.533Z,101435.26
2019-02-07T00:57:17.763Z,101442.09
2019-02-07T00:59:48.101Z,101431.52
2019-02-07T01:02:18.954Z,101430.31
2019-02-07T01:04:49.830Z,101430.05
2019-02-07T01:07:20.145Z,101421.27
2019-02-07T01:09:50.931Z,101411.62
2019-02-07T01:12:21.424Z,101409.38
2019-02-07T01:15:01.594Z,101401.91
2019-02-07T01:17:24.675Z,101397.83
2019-02-07T01:19:55.012Z,101397.83
2019-02-07T01:22:25.586Z,101386.77
2019-02-07T01:24:56.146Z,101383.67
2019-02-07T01:27:26.761Z,101381.42
2019-02-07T01:29:57.055Z,101380.28
2019-02-07T01:32:27.358Z,101376.16
2019-02-07T01:34:57.871Z,101364.86
2019-02-07T01:37:28.138Z,101364.55
2019-02-07T01:39:58.706Z,101358.96
2019-02-07T01:42:29.527Z,101350.68
2019-02-07T01:44:59.798Z,101344.55
2019-02-07T01:47:30.068Z,101342.59
2019-02-07T01:50:00.387Z,101337.39
2019-02-07T01:52:30.705Z,101331.36
2019-02-07T01:55:00.977Z,101327.70
2019-02-07T01:57:32.236Z,101330.25
2019-02-07T02:00:02.594Z,101320.42
2019-02-07T02:02:32.820Z,101316.79
2019-02-07T02:05:03.083Z,101314.80
2019-02-07T02:07:33.453Z,101309.36
2019-02-07T02:10:04.651Z,101307.26
2019-02-07T02:12:34.882Z,101302.78
2019-02-07T02:15:06.839Z,101299.28
2019-02-07T02:17:37.093Z,101296.53
2019-02-07T02:20:08.135Z,101290.05
2019-02-07T02:22:38.508Z,101287.25
2019-02-07T02:25:09.825Z,101281.84
2019-02-07T02:27:40.105Z,101270.91
2019-02-07T02:30:19.742Z,101269.64
2019-02-07T02:32:50.079Z,101260.06
2019-02-07T02:35:20.705Z,101257.02
2019-02-07T02:37:50.941Z,101251.27
2019-02-07T02:40:21.426Z,101247.40
2019-02-07T02:42:51.693Z,101241.89
2019-02-07T02:45:22.948Z,101242.20
2019-02-07T02:47:53.579Z,101236.84
2019-02-07T02:50:23.847Z,101233.91
2019-02-07T02:52:54.526Z,101220.03
2019-02-07T02:55:30.385Z,101216.65
2019-02-07T02:58:00.654Z,101211.92
2019-02-07T03:01:01.462Z,101197.61
2019-02-07T03:03:53.186Z,101193.47
2019-02-07T03:06:38.470Z,101195.55
2019-02-07T03:09:31.269Z,101190.16
2019-02-07T03:16:17.455Z,101183.97
2019-02-07T03:19:00.146Z,101175.27
2019-02-07T03:22:01.622Z,101171.89
2019-02-07T03:24:49.498Z,101161.26
2019-02-07T03:27:41.568Z,101157.65
2019-02-07T03:30:46.625Z,101149.37
2019-02-07T03:33:35.854Z,101135.23
2019-02-07T03:36:24.140Z,101133.78
2019-02-07T03:39:04.939Z,101129.28
2019-02-07T03:41:58.078Z,101116.61
2019-02-07T03:44:42.835Z,101112.31
2019-02-07T03:47:31.309Z,101107.53
2019-02-07T03:50:19.053Z,101111.19
2019-02-07T03:53:21.012Z,101096.98
2019-02-07T03:56:16.403Z,101087.96
2019-02-07T03:59:05.040Z,101096.97
2019-02-07T04:02:09.708Z,101079.95
2019-02-07T04:05:11.033Z,101077.22
2019-02-07T04:07:55.369Z,101074.48
2019-02-07T04:10:36.426Z,101074.66
2019-02-07T04:13:24.544Z,101066.19
2019-02-07T04:16:18.392Z,101066.23
2019-02-07T04:19:23.941Z,101054.59
2019-02-07T04:22:03.089Z,101051.99
2019-02-07T04:24:50.903Z,101051.33
2019-02-07T04:27:40.124Z,101053.23
2019-02-07T04:30:29.936Z,101044.73
2019-02-07T04:33:11.126Z,101040.17
2019-02-07T04:36:12.691Z,101025.12
2019-02-07T04:39:00.834Z,101028.84
2019-02-07T04:41:52.865Z,101017.41
2019-02-07T04:44:35.956Z,101016.24
2019-02-07T04:47:25.120Z,101006.70
2019-02-07T04:50:20.334Z,101003.46
2019-02-07T04:53:16.301Z,100998.43
2019-02-07T04:56:24.001Z,100987.77
2019-02-07T04:59:13.243Z,100981.44
2019-02-07T05:01:58.673Z,100969.28
2019-02-07T05:04:48.034Z,100961.56
2019-02-07T05:07:49.009Z,100959.30
2019-02-07T05:10:47.645Z,100953.09
2019-02-07T05:13:39.675Z,100942.30
2019-02-07T05:16:39.129Z,100938.25
2019-02-07T05:19:20.111Z,100928.54
2019-02-07T05:22:15.889Z,100924.81
2019-02-07T05:25:08.039Z,100920.76
2019-02-07T05:28:02.881Z,100921.78
2019-02-07T05:30:59.409Z,100918.13
2019-02-07T05:33:43.392Z,100906.56
2019-02-07T05:36:32.708Z,100899.45
2019-02-07T05:39:10.457Z,100900.87
2019-02-07T05:42:06.165Z,100900.41
2019-02-07T05:44:44.385Z,100898.75
2019-02-07T05:47:30.543Z,100879.81
2019-02-07T05:50:18.893Z,100885.31
2019-02-07T05:53:07.348Z,100875.96
2019-02-07T05:56:02.945Z,100868.19
2019-02-07T05:58:42.875Z,100867.52
2019-02-07T06:01:37.838Z,100858.95
2019-02-07T06:04:25.735Z,100851.48
2019-02-07T06:07:17.985Z,100844.05
2019-02-07T06:10:10.562Z,100839.53
2019-02-07T06:12:53.853Z,100835.14
2019-02-07T06:16:01.374Z,100832.27
2019-02-07T06:18:50.588Z,100831.75
2019-02-07T06:21:40.142Z,100830.44
2019-02-07T06:24:28.221Z,100823.47
2019-02-07T06:27:13.096Z,100812.48
2019-02-07T06:30:08.674Z,100816.86
2019-02-07T06:33:10.034Z,100815.24
2019-02-07T06:35:59.558Z,100809.03
2019-02-07T06:38:43.667Z,100800.84
2019-02-07T06:41:24.665Z,100795.77
2019-02-07T06:44:32.282Z,100797.10
2019-02-07T06:47:21.575Z,100793.70
2019-02-07T06:50:25.903Z,100781.56
2019-02-07T06:53:14.044Z,100784.34
2019-02-07T06:56:06.094Z,100773.16
2019-02-07T06:59:01.675Z,100774.29
2019-02-07T07:02:06.533Z,100765.58
2019-02-07T07:04:59.357Z,100755.51
2019-02-07T07:07:54.922Z,100754.89
2019-02-07T07:10:44.442Z,100750.84
2019-02-07T07:13:22.100Z,100752.00
2019-02-07T07:16:07.530Z,100743.23
2019-02-07T07:18:58.915Z,100732.90
2019-02-07T07:21:46.645Z,100734.53
2019-02-07T07:24:41.995Z,100723.70
2019-02-07T07:27:34.136Z,100725.27
2019-02-07T07:30:22.949Z,100722.84
2019-02-07T07:33:06.231Z,100732.08
2019-02-07T07:35:52.563Z,100718.34
2019-02-07T07:38:50.968Z,100717.52
2019-02-07T07:41:46.614Z,100701.66
2019-02-07T07:44:42.029Z,100712.83
2019-02-07T07:47:40.485Z,100705.72
2019-02-07T07:50:31.150Z,100702.29
2019-02-07T07:53:20.424Z,100696.34
2019-02-07T07:56:24.934Z,100691.66
2019-02-07T07:59:14.147Z,100695.05
2019-02-07T08:02:12.260Z,100680.67
2019-02-07T08:05:10.646Z,100686.33
2019-02-07T08:07:58.549Z,100680.19
2019-02-07T08:10:46.665Z,100678.56
2019-02-07T08:13:43.885Z,100687.33
2019-02-07T08:16:27.403Z,100684.42
2019-02-07T08:19:15.162Z,100674.24
2019-02-07T08:22:08.910Z,100681.36
2019-02-07T08:25:07.271Z,100675.70
2019-02-07T08:28:08.952Z,100673.41
2019-02-07T08:31:10.185Z,100659.69
2019-02-07T08:34:02.898Z,100658.36
2019-02-07T08:36:51.698Z,100667.62
2019-02-07T08:39:47.958Z,100651.75
2019-02-07T08:42:42.142Z,100651.59
2019-02-07T08:45:37.497Z,100646.92
2019-02-07T08:48:39.183Z,100652.07
2019-02-07T08:51:18.742Z,100643.84
2019-02-07T08:54:04.433Z,100643.99
2019-02-07T08:56:59.911Z,100637.83
2019-02-07T08:59:49.388Z,100638.33
2019-02-07T09:02:51.853Z,100631.06
2019-02-07T09:05:35.969Z,100617.63
2019-02-07T09:08:27.958Z,100619.24
2019-02-07T09:11:13.711Z,100629.43
2019-02-07T09:14:05.828Z,100608.89
2019-02-07T09:16:44.261Z,100613.59
2019-02-07T09:19:32.520Z,100609.07
2019-02-07T09:22:19.742Z,100614.91
2019-02-07T09:25:11.645Z,100607.13
2019-02-07T09:28:00.701Z,100601.78
2019-02-07T09:30:48.905Z,100602.33
2019-02-07T09:33:36.949Z,100610.56
2019-02-07T09:36:35.923Z,100596.16
2019-02-07T09:39:43.743Z,100596.64
2019-02-07T09:42:31.073Z,100595.20
2019-02-07T09:45:23.438Z,100591.48
2019-02-07T09:48:21.708Z,100588.73
2019-02-07T09:51:04.969Z,100596.34
2019-02-07T09:53:53.876Z,100588.88
2019-02-07T09:56:47.233Z,100587.25
2019-02-07T09:59:36.684Z,100588.41
2019-02-07T10:02:19.611Z,100588.89
2019-02-07T10:05:03.010Z,100586.28
2019-02-07T10:07:42.707Z,100587.09
2019-02-07T10:10:31.171Z,100577.06
2019-02-07T10:13:35.587Z,100584.96
2019-02-07T10:16:29.768Z,100579.95
2019-02-07T10:19:18.042Z,100571.53
2019-02-07T10:22:06.191Z,100579.11
2019-02-07T10:24:55.376Z,100583.63
2019-02-07T10:27:47.760Z,100584.12
2019-02-07T10:30:47.325Z,100568.56
2019-02-07T10:33:36.924Z,100569.16
2019-02-07T10:36:24.991Z,100566.25
2019-02-07T10:39:13.332Z,100559.44
2019-02-07T10:42:11.820Z,100563.44
2019-02-07T10:45:07.006Z,100563.33
2019-02-07T10:47:49.676Z,100564.12
2019-02-07T10:50:45.161Z,100562.52
2019-02-07T10:53:29.177Z,100550.03
2019-02-07T10:56:21.205Z,100564.42
2019-02-07T10:59:19.547Z,100559.25
2019-02-07T11:02:08.903Z,100550.48
2019-02-07T11:04:56.742Z,100551.37
2019-02-07T11:07:44.546Z,100553.09
2019-02-07T11:10:27.456Z,100552.53
2019-02-07T11:13:15.938Z,100551.41
2019-02-07T11:16:03.839Z,100541.33
2019-02-07T11:18:56.092Z,100550.02
2019-02-07T11:21:39.906Z,100551.95
2019-02-07T11:24:29.252Z,100548.68
2019-02-07T11:27:18.192Z,100553.30
2019-02-07T11:29:59.426Z,100542.50
2019-02-07T11:32:48.384Z,100542.92
2019-02-07T11:35:33.979Z,100536.55
2019-02-07T11:38:17.820Z,100526.31
2019-02-07T11:41:13.652Z,100526.34
2019-02-07T11:43:56.186Z,100518.48
2019-02-07T11:46:49.029Z,100510.39
2019-02-07T11:49:41.538Z,100500.42
2019-02-07T11:52:21.566Z,100510.17
2019-02-07T11:55:13.842Z,100502.58
2019-02-07T11:58:01.597Z,100504.79
2019-02-07T12:00:50.521Z,100499.92
2019-02-07T12:03:40.142Z,100498.16
2019-02-07T12:06:24.130Z,100502.05
2019-02-07T12:09:17.766Z,100496.92
2019-02-07T12:12:19.079Z,100493.06
2019-02-07T12:15:06.132Z,100488.28
2019-02-07T12:17:54.775Z,100490.52
2019-02-07T12:20:44.749Z,100478.73
2019-02-07T12:23:32.994Z,100485.40
2019-02-07T12:26:17.543Z,100478.86
2019-02-07T12:29:06.811Z,100482.15
2019-02-07T12:32:02.184Z,100481.89
2019-02-07T12:34:54.658Z,100480.16
2019-02-07T12:37:50.215Z,100482.31
2019-02-07T12:40:54.524Z,100480.66
2019-02-07T12:43:38.132Z,100483.00
2019-02-07T12:46:39.968Z,100482.49
2019-02-07T12:49:29.256Z,100484.63
2019-02-07T12:52:23.722Z,100486.63
2019-02-07T12:55:11.405Z,100492.00
2019-02-07T12:57:59.367Z,100493.63
2019-02-07T13:00:47.274Z,100487.46
2019-02-07T13:03:35.525Z,100495.94
2019-02-07T13:06:40.190Z,100492.56
2019-02-07T13:09:31.119Z,100491.64
2019-02-07T13:12:30.204Z,100489.47
2019-02-07T13:15:25.896Z,100483.25
2019-02-07T13:18:31.102Z,100483.47
2019-02-07T13:21:35.370Z,100476.75
2019-02-07T13:24:37.192Z,100475.41
2019-02-07T13:27:44.983Z,100478.70
2019-02-07T13:30:42.034Z,100476.55
2019-02-07T13:33:29.953Z,100470.44
2019-02-07T13:36:13.446Z,100472.31
2019-02-07T13:39:05.610Z,100482.00
2019-02-07T13:41:54.740Z,100477.45
2019-02-07T13:44:43.929Z,100481.67
2019-02-07T13:47:34.473Z,100471.46
2019-02-07T13:50:33.278Z,100478.06
2019-02-07T13:53:34.685Z,100479.54
2019-02-07T13:56:22.919Z,100486.11
2019-02-07T13:59:18.430Z,100484.80
2019-02-07T14:02:10.776Z,100485.69
2019-02-07T14:04:54.328Z,100476.47
2019-02-07T14:07:42.522Z,100492.25
2019-02-07T14:10:31.263Z,100490.12
2019-02-07T14:13:19.402Z,100497.86
2019-02-07T14:16:17.140Z,100487.93
2019-02-07T14:18:55.408Z,100498.77
2019-02-07T14:21:57.124Z,100499.16
2019-02-07T14:24:45.656Z,100502.98
2019-02-07T14:27:40.935Z,100502.87
2019-02-07T14:30:42.554Z,100506.05
2019-02-07T14:33:43.983Z,100504.35
2019-02-07T14:36:32.056Z,100497.39
2019-02-07T14:39:11.382Z,100494.95
2019-02-07T14:41:53.421Z,100499.72
2019-02-07T14:44:41.377Z,100492.77
2019-02-07T14:47:11.672Z,100488.52
2019-02-07T14:49:42.271Z,100485.63
2019-02-07T14:52:13.265Z,100486.07
2019-02-07T14:54:43.583Z,100485.38
2019-02-07T14:57:13.862Z,100485.45
2019-02-07T14:59:44.481Z,100480.48
2019-02-07T15:02:14.954Z,100473.48
2019-02-07T15:04:45.913Z,100474.32
2019-02-07T15:07:16.574Z,100482.75
2019-02-07T15:09:46.862Z,100472.75
2019-02-07T15:12:17.613Z,100466.80
2019-02-07T15:14:47.954Z,100465.25
2019-02-07T15:17:18.419Z,100464.14
2019-02-07T15:19:48.675Z,100462.59
2019-02-07T15:22:19.068Z,100460.85
2019-02-07T15:24:49.656Z,100462.45
2019-02-07T15:27:20.002Z,100465.29
2019-02-07T15:29:50.411Z,100456.38
2019-02-07T15:32:20.684Z,100458.95
2019-02-07T15:34:53.767Z,100456.44
2019-02-07T15:37:23.065Z,100462.69
2019-02-07T15:39:53.587Z,100471.05
2019-02-07T15:42:24.355Z,100469.66
2019-02-07T15:44:55.346Z,100472.27
2019-02-07T15:47:25.671Z,100474.76
2019-02-07T15:49:56.224Z,100476.36
2019-02-07T15:52:26.842Z,100473.45
2019-02-07T15:54:57.156Z,100474.44
2019-02-07T15:57:27.427Z,100476.70
2019-02-07T16:00:01.008Z,100475.64
2019-02-07T16:02:36.147Z,100468.00
2019-02-07T16:05:10.689Z,100475.28
2019-02-07T16:07:41.611Z,100474.00
2019-02-07T16:10:15.266Z,100477.56
2019-02-07T16:12:45.772Z,100483.52
2019-02-07T16:15:16.575Z,100481.77
2019-02-07T16:17:47.267Z,100490.14
2019-02-07T16:20:19.107Z,100476.66
2019-02-07T16:22:49.668Z,100475.41
2019-02-07T16:25:20.316Z,100474.38
2019-02-07T16:27:50.573Z,100482.95
2019-02-07T16:30:21.158Z,100483.34
2019-02-07T16:32:51.486Z,100483.69
2019-02-07T16:35:22.518Z,100489.69
2019-02-07T16:37:53.111Z,100490.51
2019-02-07T16:40:24.150Z,100486.64
2019-02-07T16:42:54.997Z,100489.00
2019-02-07T16:45:25.775Z,100484.48
2019-02-07T16:47:56.328Z,100484.80
2019-02-07T16:50:27.221Z,100478.63
2019-02-07T16:52:57.435Z,100484.22
2019-02-07T16:55:28.388Z,100487.41
2019-02-07T16:57:58.628Z,100484.09
2019-02-07T17:00:29.137Z,100475.73
2019-02-07T17:02:59.821Z,100482.40
2019-02-07T17:05:30.220Z,100479.73
2019-02-07T17:08:00.480Z,100478.29
2019-02-07T17:10:32.789Z,100477.33
2019-02-07T17:13:03.093Z,100475.73
2019-02-07T17:15:33.650Z,100469.81
2019-02-07T17:18:04.150Z,100475.98
2019-02-07T17:20:34.555Z,100474.79
2019-02-07T17:23:05.023Z,100468.46
2019-02-07T17:25:35.432Z,100479.55
2019-02-07T17:28:05.852Z,100480.64
2019-02-07T17:30:36.313Z,100477.79
2019-02-07T17:33:06.954Z,100482.21
2019-02-07T17:35:37.300Z,100478.68
2019-02-07T17:38:08.259Z,100473.90
2019-02-07T17:40:39.414Z,100487.78
2019-02-07T17:43:10.220Z,100479.64
2019-02-07T17:45:40.474Z,100480.92
2019-02-07T17:48:10.755Z,100464.92
2019-02-07T17:50:41.090Z,100469.89
2019-02-07T17:53:11.497Z,100481.07
2019-02-07T17:55:41.812Z,100482.16
2019-02-07T17:58:12.578Z,100486.78
2019-02-07T18:00:59.453Z,100484.25
2019-02-07T18:03:29.951Z,100477.67
2019-02-07T18:06:00.213Z,100466.93
2019-02-07T18:08:31.145Z,100469.61
2019-02-07T18:11:01.753Z,100478.86
2019-02-07T18:13:32.052Z,100491.28
2019-02-07T18:16:02.286Z,100498.19
2019-02-07T18:18:32.628Z,100506.71
2019-02-07T18:21:03.271Z,100513.70
2019-02-07T18:23:33.859Z,100508.94
2019-02-07T18:26:04.186Z,100506.92
2019-02-07T18:28:34.459Z,100511.19
2019-02-07T18:31:05.129Z,100520.98
2019-02-07T18:33:35.611Z,100521.27
2019-02-07T18:36:05.974Z,100522.13
2019-02-07T18:38:36.212Z,100523.67
2019-02-07T18:41:06.594Z,100532.63
2019-02-07T18:43:36.880Z,100534.07
2019-02-07T18:46:07.333Z,100536.90
2019-02-07T18:48:37.657Z,100543.98
2019-02-07T18:51:08.139Z,100542.88
2019-02-07T18:53:38.425Z,100537.09
2019-02-07T18:56:08.834Z,100533.39
2019-02-07T18:58:39.215Z,100533.56
2019-02-07T19:01:09.476Z,100528.13
2019-02-07T19:03:40.878Z,100534.72
2019-02-07T19:06:11.169Z,100539.58
2019-02-07T19:08:41.786Z,100537.86
2019-02-07T19:11:12.109Z,100548.59
2019-02-07T19:13:42.371Z,100548.91
2019-02-07T19:16:17.614Z,100552.97
2019-02-07T19:18:48.226Z,100555.86
2019-02-07T19:21:18.770Z,100555.41
2019-02-07T19:23:49.311Z,100555.91
2019-02-07T19:26:19.636Z,100566.03
2019-02-07T19:28:49.886Z,100563.70
2019-02-07T19:31:20.445Z,100565.33
2019-02-07T19:33:50.663Z,100568.38
2019-02-07T19:36:20.951Z,100565.72
2019-02-07T19:38:51.303Z,100589.10
2019-02-07T19:41:21.665Z,100594.47
2019-02-07T19:43:51.891Z,100608.42
2019-02-07T19:46:22.523Z,100616.25
2019-02-07T19:48:52.832Z,100619.84
2019-02-07T19:51:23.087Z,100621.17
2019-02-07T19:53:53.452Z,100631.56
2019-02-07T19:56:23.746Z,100636.76
2019-02-07T19:58:54.035Z,100631.11
2019-02-07T20:01:24.801Z,100633.23
2019-02-07T20:03:55.077Z,100646.40
2019-02-07T20:06:25.746Z,100636.69
2019-02-07T20:08:56.145Z,100634.93
2019-02-07T20:11:26.702Z,100645.00
2019-02-07T20:13:57.003Z,100644.02
2019-02-07T20:16:27.372Z,100641.27
2019-02-07T20:18:57.719Z,100643.07
2019-02-07T20:21:28.021Z,100645.66
2019-02-07T20:23:58.360Z,100651.67
2019-02-07T20:26:28.709Z,100648.12
2019-02-07T20:28:59.002Z,100661.55
2019-02-07T20:31:29.732Z,100648.59
2019-02-07T20:33:59.989Z,100657.52
2019-02-07T20:36:30.285Z,100667.72
2019-02-07T20:39:00.606Z,100663.95
2019-02-07T20:41:30.851Z,100663.97
2019-02-07T20:44:01.101Z,100675.17
2019-02-07T20:46:31.914Z,100681.19
2019-02-07T20:49:02.898Z,100675.67
2019-02-07T20:51:33.141Z,100678.45
2019-02-07T20:54:03.816Z,100680.20
2019-02-07T20:56:34.243Z,100682.82
2019-02-07T20:59:04.560Z,100689.10
2019-02-07T21:01:35.415Z,100693.98
2019-02-07T21:04:05.765Z,100699.30
2019-02-07T21:06:36.025Z,100707.45
2019-02-07T21:09:10.163Z,100712.61
2019-02-07T21:11:40.448Z,100705.85
2019-02-07T21:14:10.783Z,100711.67
2019-02-07T21:16:41.273Z,100709.88
2019-02-07T21:19:11.440Z,100718.28
2019-02-07T21:21:41.705Z,100724.30
2019-02-07T21:24:12.348Z,100725.77
2019-02-07T21:26:43.557Z,100736.94
2019-02-07T21:29:13.834Z,100744.09
2019-02-07T21:31:44.105Z,100744.56
2019-02-07T21:34:14.371Z,100750.41
2019-02-07T21:36:44.689Z,100756.58
2019-02-07T21:39:14.984Z,100763.21
2019-02-07T21:41:45.215Z,100769.07
2019-02-07T21:44:15.762Z,100768.73
2019-02-07T21:46:46.137Z,100777.97
2019-02-07T21:49:16.445Z,100772.16
2019-02-07T21:51:46.813Z,100785.59
2019-02-07T21:54:17.141Z,100787.38
2019-02-07T21:56:47.409Z,100790.14
2019-02-07T21:59:17.759Z,100794.17
2019-02-07T22:01:48.098Z,100794.36
2019-02-07T22:04:18.364Z,100802.11
2019-02-07T22:06:48.648Z,100788.36
2019-02-07T22:09:18.959Z,100803.73
2019-02-07T22:11:49.279Z,100800.84
2019-02-07T22:14:20.438Z,100801.31
2019-02-07T22:16:50.987Z,100791.92
2019-02-07T22:19:21.235Z,100806.86
2019-02-07T22:21:51.618Z,100808.12
2019-02-07T22:24:21.975Z,100814.94
2019-02-07T22:26:52.363Z,100813.50
2019-02-07T22:29:22.928Z,100811.20
2019-02-07T22:31:53.269Z,100804.42
2019-02-07T22:34:23.612Z,100817.86
2019-02-07T22:36:54.021Z,100819.14
2019-02-07T22:39:24.309Z,100821.09
2019-02-07T22:41:54.571Z,100824.67
2019-02-07T22:44:25.112Z,100832.92
2019-02-07T22:46:55.422Z,100825.48
2019-02-07T22:49:25.737Z,100831.95
2019-02-07T22:51:56.035Z,100838.42
2019-02-07T22:54:26.278Z,100840.72
2019-02-07T22:56:56.745Z,100843.63
2019-02-07T22:59:27.345Z,100842.33
2019-02-07T23:01:58.135Z,100844.44
2019-02-07T23:04:29.431Z,100843.30
2019-02-07T23:06:59.808Z,100842.64
2019-02-07T23:09:30.118Z,100846.69
2019-02-07T23:12:00.457Z,100847.83
2019-02-07T23:14:30.754Z,100849.13
2019-02-07T23:17:01.285Z,100848.48
2019-02-07T23:19:31.619Z,100851.27
2019-02-07T23:22:01.978Z,100853.85
2019-02-07T23:24:32.760Z,100853.69
2019-02-07T23:27:03.038Z,100849.80
2019-02-07T23:29:33.640Z,100851.73
2019-02-07T23:32:04.426Z,100840.87
2019-02-07T23:34:34.723Z,100857.25
2019-02-07T23:37:05.119Z,100860.16
2019-02-07T23:39:35.438Z,100859.69
2019-02-07T23:42:06.228Z,100850.44
2019-02-07T23:44:36.745Z,100865.84
2019-02-07T23:47:07.045Z,100868.28
2019-02-07T23:49:37.582Z,100866.33
2019-02-07T23:52:08.406Z,100872.01
2019-02-07T23:54:38.712Z,100878.14
2019-02-07T23:57:09.007Z,100876.55
2019-02-07T23:59:39.349Z,100888.37
